Time;durP1;ratioP1;P1;durP2;ratioP2;P2;SDS_P1;SDS_P2;PMS_P1;PMS_P2;Temp;Humidity;BMP_temperature;BMP_pressure;BME280_temperature;BME280_humidity;BME280_pressure;Samples;Min_cycle;Max_cycle;Signal;HPM_P1;HPM_P2
2022/04/23 00:10:32;;;;;;;;;;;;;;;;;;;;;
2022/04/23 00:13:31;;;;;;;;;;;;;;;13.21;63.56;98701.34;4331976;33;33208;-89
2022/04/23 00:17:00;;;;;;;;;;;;;;;;;;;;;
2022/04/23 00:26:45;;;;;;;;;;;;;;;;;;;;;
2022/04/23 00:33:56;;;;;;;;;;;;;;;13.15;63.57;98702.12;4340451;32;33780;-91
2022/04/23 00:40:38;;;;;;;;;;;;;;;13.27;62.94;98700.63;4362275;32;33929;-91
2022/04/23 00:50:21;;;;;;;;;;;;;;;12.89;64.65;98709.75;4345436;33;32731;-92
2022/04/23 00:57:05;;;;;;;;;;;;;;;12.63;65.18;98709.38;4346290;33;35273;-91
2022/04/23 01:14:23;;;;;;;;;;;;;;;;;;;;;
2022/04/23 01:17:23;;;;;;;;;;;;;;;;;;;;;
2022/04/23 01:20:30;;;;;;;;;;;;;;;;;;;;;
2022/04/23 01:40:46;;;;;;;;;;;;;;;13.13;64.33;98717.47;4271124;33;33156;-93
2022/04/23 01:51:28;;;;;;;;;;;;;;;12.98;65.27;98716.69;4327361;33;34611;-93
2022/04/23 01:54:36;;;;;;;;;;;;;;;12.95;65.38;98718.91;4344429;33;34552;-92
2022/04/23 01:57:13;;;;;;;;;;;;;;;13.09;64.84;98715.38;4343226;33;32094;-91
2022/04/23 02:01:05;;;;;;;;;;;;;;;12.93;65.51;98720.91;4319182;33;32964;-91
2022/04/23 02:04:26;;;;;;;;;;;;;;;;;;;;;
2022/04/23 02:11:15;;;;;;;;;;;;;;;12.70;66.50;98726.31;4345554;32;33496;-93
2022/04/23 02:15:28;;;;;;;;;;;;;;;12.85;65.94;98724.47;4345328;33;34088;-92
2022/04/23 02:31:38;;;;;;;;;;;;;;;12.79;66.01;98719.87;4339997;32;35710;-92
2022/04/23 02:35:02;;;;;;;;;;;;;;;;;;;;;
2022/04/23 02:42:17;;;;;;;;;;;;;;;12.87;65.61;98734.97;4359862;32;34141;-91
2022/04/23 02:54:38;;;;;;;;;;;;;;;13.07;64.71;98736.94;4358096;32;32771;-92
2022/04/23 02:57:56;;;;;;;;;;;;;;;12.90;65.26;98740.78;4367697;32;36216;-93
2022/04/23 03:00:39;;;;;;;;;;;;;;;;;;;;;
2022/04/23 03:04:20;;;;;;;;;;;;;;;;;;;;;
2022/04/23 03:11:10;;;;;;;;;;;;;;;13.03;64.84;98732.97;4371686;32;34581;-92
2022/04/23 03:13:40;;;;;;;;;;;;;;;12.92;65.24;98733.41;4376843;32;33691;-92
2022/04/23 03:24:22;;;;;;;;;;;;;;;12.77;65.57;98735.22;4368845;32;34505;-92
2022/04/23 03:31:02;;;;;;;;;;;;;;;12.69;65.86;98743.34;4350980;32;32013;-94
2022/04/23 03:51:16;;;;;;;;;;;;;;;12.99;64.91;98765.56;4286709;33;33763;-93
2022/04/23 04:04:46;;;;;;;;;;;;;;;;;;;;;
2022/04/23 04:07:44;;;;;;;;;;;;;;;13.22;63.89;98774.31;4300974;33;33404;-94
2022/04/23 04:10:36;;;;;;;;;;;;;;;13.09;64.47;98771.44;4292269;33;33050;-92
2022/04/23 04:14:17;;;;;;;;;;;;;;;12.89;65.28;98783.66;4314975;33;33583;-93
2022/04/23 04:24:05;;;;;;;;;;;;;;;;;;;;;
2022/04/23 04:27:08;;;;;;;;;;;;;;;;;;;;;
2022/04/23 04:34:14;;;;;;;;;;;;;;;12.82;65.87;98796.91;4259069;33;33913;-93
2022/04/23 04:40:52;;;;;;;;;;;;;;;12.96;65.38;98800.62;4260022;33;34194;-92
2022/04/23 04:44:36;;;;;;;;;;;;;;;12.97;65.47;98788.94;4271557;33;33587;-92
2022/04/23 04:47:16;;;;;;;;;;;;;;;12.96;65.41;98797.97;4271101;33;33000;-93
2022/04/23 04:57:15;;;;;;;;;;;;;;;12.32;67.33;98802.06;4273681;33;33187;-94
2022/04/23 05:15:08;;;;;;;;;;;;;;;13.10;65.65;98795.31;4330048;32;33286;-95
2022/04/23 05:26:18;;;;;;;;;;;;;;;13.46;64.88;98811.37;4335073;33;32565;-91
2022/04/23 05:30:09;;;;;;;;;;;;;;;13.31;65.45;98822.09;4351601;32;33271;-91
2022/04/23 05:32:54;;;;;;;;;;;;;;;;;;;;;
2022/04/23 05:42:26;;;;;;;;;;;;;;;13.67;63.95;98822.97;4364068;32;34857;-88
2022/04/23 05:46:17;;;;;;;;;;;;;;;13.75;63.79;98822.88;4368771;32;35531;-86
2022/04/23 05:52:39;;;;;;;;;;;;;;;13.57;65.79;98825.13;4358338;32;33696;-86
2022/04/23 05:55:11;;;;;;;;;;;;;;;;;;;;;
2022/04/23 06:02:16;;;;;;;;;;;;;;;14.23;63.15;98826.75;4359029;32;34414;-86
2022/04/23 06:08:31;;;;;;;;;;;;;;;;;;;;;
2022/04/23 06:14:38;;;;;;;;;;;;;;;;;;;;;
2022/04/23 06:37:26;;;;;;;;;;;;;;;;;;;;;
2022/04/23 06:43:54;;;;;;;;;;;;;;;15.41;59.88;98889.13;4340317;33;33678;-85
2022/04/23 07:14:23;;;;;;;;;;;;;;;;;;;;;
2022/04/23 07:20:35;;;;;;;;;;;;;;;16.19;57.19;98909.13;4242794;33;35040;-88
2022/04/23 07:40:34;;;;;;;;;;;;;;;16.28;55.91;98934.78;4318866;33;34085;-85
2022/04/23 07:53:53;;;;;;;;;;;;;;;16.41;56.49;98937.53;4346340;32;33028;-85
2022/04/23 07:59:17;;;;;;;;;;;;;;;16.34;56.25;98943.88;4355854;32;32969;-85
2022/04/23 08:02:58;;;;;;;;;;;;;;;16.07;57.49;98952.84;4349448;32;33355;-84
2022/04/23 08:15:59;;;;;;;;;;;;;;;15.68;58.91;98958.00;4329408;33;32166;-84
2022/04/23 08:25:12;;;;;;;;;;;;;;;16.24;57.54;98946.94;4346380;32;34623;-84
2022/04/23 08:35:42;;;;;;;;;;;;;;;16.61;57.25;98964.44;4343402;32;36328;-86
2022/04/23 08:42:42;;;;;;;;;;;;;;;16.78;54.45;98955.81;4336596;33;34179;-85
2022/04/23 08:48:49;;;;;;;;;;;;;;;;;;;;;
2022/04/23 08:52:28;;;;;;;;;;;;;;;17.76;52.02;98954.00;4348837;32;33023;-86
2022/04/23 08:58:25;;;;;;;;;;;;;;;;;;;;;
2022/04/23 09:01:46;;;;;;;;;;;;;;;17.96;52.16;98966.34;4349439;32;35175;-85
2022/04/23 09:08:38;;;;;;;;;;;;;;;18.08;50.26;98975.44;4336135;32;31912;-84
2022/04/23 09:32:27;;;;;;;;;;;;;;;17.47;51.37;99002.00;4332737;33;32992;-85
2022/04/23 09:35:09;;;;;;;;;;;;;;;;;;;;;
2022/04/23 09:38:27;;;;;;;;;;;;;;;17.29;51.67;99002.59;4347858;32;34601;-84
2022/04/23 09:58:32;;;;;;;;;;;;;;;;;;;;;
2022/04/23 10:02:08;;;;;;;;;;;;;;;;;;;;;
2022/04/23 10:18:24;;;;;;;;;;;;;;;;;;;;;
2022/04/23 10:21:57;;;;;;;;;;;;;;;16.39;54.52;99030.88;4357385;32;35847;-86
2022/04/23 10:35:16;;;;;;;;;;;;;;;16.58;54.94;99030.12;4305163;33;36320;-86
2022/04/23 10:38:37;;;;;;;;;;;;;;;16.60;54.61;99030.75;4300683;33;33876;-85
2022/04/23 11:03:18;;;;;;;;;;;;;;;17.79;51.12;99050.44;4301553;33;34143;-86
2022/04/23 11:13:45;;;;;;;;;;;;;;;18.08;48.92;99048.13;4308378;33;33501;-85
2022/04/23 11:16:18;;;;;;;;;;;;;;;17.89;50.15;99048.13;4309119;33;33745;-85
2022/04/23 11:19:07;;;;;;;;;;;;;;;17.81;50.39;99048.34;4298846;33;32938;-86
2022/04/23 11:22:51;;;;;;;;;;;;;;;17.82;50.67;99060.75;4294035;33;34871;-86
2022/04/23 11:29:52;;;;;;;;;;;;;;;17.84;51.73;99056.00;4292984;33;33319;-86
2022/04/23 11:39:18;;;;;;;;;;;;;;;17.95;51.87;99052.69;4329553;33;34081;-86
2022/04/23 11:42:27;;;;;;;;;;;;;;;;;;;;;
2022/04/23 12:01:24;;;;;;;;;;;;;;;;;;;;;
2022/04/23 12:14:59;;;;;;;;;;;;;;;19.27;47.15;99044.78;4331829;33;32689;-86
2022/04/23 12:24:18;;;;;;;;;;;;;;;;;;;;;
2022/04/23 12:44:00;;;;;;;;;;;;;;;;;;;;;
2022/04/23 12:50:22;;;;;;;;;;;;;;;20.87;45.61;99018.34;4356570;32;33101;-85
2022/04/23 12:54:04;;;;;;;;;;;;;;;21.23;42.68;99008.22;4346907;32;34713;-87
2022/04/23 13:04:46;;;;;;;;;;;;;;;21.03;40.31;99028.50;4272884;33;34469;-86
2022/04/23 13:17:46;;;;;;;;;;;;;;;20.76;43.26;99019.03;4214710;33;32865;-85
2022/04/23 13:27:01;;;;;;;;;;;;;;;;;;;;;
2022/04/23 13:50:18;;;;;;;;;;;;;;;;;;;;;
2022/04/23 14:00:11;;;;;;;;;;;;;;;20.33;42.01;99033.72;4257894;33;33146;-86
2022/04/23 14:13:14;;;;;;;;;;;;;;;;;;;;;
2022/04/23 14:34:21;;;;;;;;;;;;;;;18.94;45.89;99042.25;4292497;33;33861;-86
2022/04/23 14:56:28;;;;;;;;;;;;;;;17.72;50.04;99063.03;4265650;33;34919;-87
2022/04/23 15:00:14;;;;;;;;;;;;;;;17.77;50.53;99060.56;4282342;33;33669;-85
2022/04/23 15:03:09;;;;;;;;;;;;;;;17.22;51.92;99071.66;4268731;33;32151;-86
2022/04/23 15:13:49;;;;;;;;;;;;;;;17.08;52.74;99058.41;4272180;33;36028;-86
2022/04/23 15:20:52;;;;;;;;;;;;;;;17.30;53.59;99058.03;4317223;33;34954;-86
2022/04/23 15:34:43;;;;;;;;;;;;;;;;;;;;;
2022/04/23 15:37:52;;;;;;;;;;;;;;;17.48;52.46;99059.09;4329580;33;34228;-85
2022/04/23 15:48:27;;;;;;;;;;;;;;;17.06;53.58;99053.22;4285671;33;33021;-88
2022/04/23 15:57:43;;;;;;;;;;;;;;;16.98;53.72;99061.44;4300364;33;33514;-87
2022/04/23 16:00:50;;;;;;;;;;;;;;;17.13;53.65;99054.06;4287332;33;33191;-87
2022/04/23 16:04:52;;;;;;;;;;;;;;;16.79;54.20;99056.84;4300268;33;35421;-85
2022/04/23 16:08:14;;;;;;;;;;;;;;;17.41;52.90;99053.91;4285438;33;34134;-86
2022/04/23 16:10:35;;;;;;;;;;;;;;;16.78;54.69;99054.38;4278204;33;33304;-85
2022/04/23 16:48:14;;;;;;;;;;;;;;;17.72;51.69;99038.84;4446005;32;33776;-79
2022/04/23 16:50:42;;;;;;;;;;;;;;;17.75;51.45;99039.25;4448875;32;34632;-79
2022/04/23 16:53:09;;;;;;;;;;;;;;;17.73;51.61;99040.47;4421884;32;34905;-79
2022/04/23 16:55:36;;;;;;;;;;;;;;;17.59;52.17;99034.28;4442997;32;35111;-80
2022/04/23 16:58:04;;;;;;;;;;;;;;;17.65;52.02;99036.16;4432945;32;32671;-78
2022/04/23 17:00:31;;;;;;;;;;;;;;;17.61;51.77;99028.69;4452242;32;34012;-79
2022/04/23 17:02:58;;;;;;;;;;;;;;;17.48;51.73;99027.88;4452530;32;35365;-78
2022/04/23 17:05:26;;;;;;;;;;;;;;;17.78;51.94;99022.69;4437158;32;34763;-78
2022/04/23 17:07:53;;;;;;;;;;;;;;;17.54;52.72;99027.88;4447109;32;34011;-79
2022/04/23 17:10:21;;;;;;;;;;;;;;;17.57;52.60;99022.09;4430591;32;34654;-78
2022/04/23 17:12:48;;;;;;;;;;;;;;;17.65;52.28;99028.09;4442368;32;34678;-79
2022/04/23 17:15:15;;;;;;;;;;;;;;;17.47;52.91;99028.91;4437472;32;34127;-78
2022/04/23 17:17:43;;;;;;;;;;;;;;;17.42;53.06;99028.69;4443503;32;32642;-79
2022/04/23 17:20:10;;;;;;;;;;;;;;;17.48;53.02;99034.09;4450258;32;33360;-80
2022/04/23 17:22:38;;;;;;;;;;;;;;;16.98;54.25;99029.22;4447230;32;35145;-79
2022/04/23 17:25:06;;;;;;;;;;;;;;;17.22;53.77;99033.19;4452807;32;34597;-79
2022/04/23 17:27:33;;;;;;;;;;;;;;;17.02;54.01;99024.25;4433145;32;34002;-78
2022/04/23 17:30:00;;;;;;;;;;;;;;;17.12;53.76;99033.59;4449172;32;34200;-79
2022/04/23 17:32:28;;;;;;;;;;;;;;;17.26;53.19;99032.56;4450961;32;35500;-81
2022/04/23 17:34:55;;;;;;;;;;;;;;;17.36;52.94;99024.16;4450285;32;33984;-79
2022/04/23 17:37:23;;;;;;;;;;;;;;;17.40;52.67;99025.37;4438503;32;33125;-78
2022/04/23 17:39:50;;;;;;;;;;;;;;;17.43;52.71;99025.81;4433476;32;34321;-80
2022/04/23 17:42:18;;;;;;;;;;;;;;;17.40;52.86;99034.28;4430625;32;36054;-78
2022/04/23 17:44:45;;;;;;;;;;;;;;;17.20;53.46;99030.72;4428938;32;34592;-80
2022/04/23 17:47:13;;;;;;;;;;;;;;;17.22;53.45;99036.72;4432638;32;33353;-78
2022/04/23 17:49:41;;;;;;;;;;;;;;;17.08;53.74;99043.09;4432570;32;32407;-81
2022/04/23 17:52:08;;;;;;;;;;;;;;;16.97;54.02;99056.31;4446417;32;36649;-78
2022/04/23 17:54:36;;;;;;;;;;;;;;;16.89;54.23;99051.09;4438309;32;34923;-78
2022/04/23 17:57:04;;;;;;;;;;;;;;;16.97;54.02;99045.56;4439346;32;33835;-77
2022/04/23 17:59:31;;;;;;;;;;;;;;;16.93;54.08;99052.34;4431472;32;33566;-77
2022/04/23 18:07:33;;;;;;;;;;;;;;;16.29;55.98;99076.00;4443932;32;34142;-78
2022/04/23 18:10:03;;;;;;;;;;;;;;;16.49;55.62;99076.97;4431675;32;35441;-77
2022/04/23 18:12:31;;;;;;;;;;;;;;;16.58;55.31;99067.72;4437185;32;35915;-77
2022/04/23 18:14:58;;;;;;;;;;;;;;;16.40;55.98;99072.78;4431063;32;34140;-78
2022/04/23 18:17:26;;;;;;;;;;;;;;;16.38;56.02;99074.84;4453895;32;32973;-79
2022/04/23 18:19:53;;;;;;;;;;;;;;;16.20;56.69;99073.66;4434005;32;34542;-79
2022/04/23 18:22:21;;;;;;;;;;;;;;;15.94;57.50;99073.47;4449538;32;35025;-78
2022/04/23 18:24:50;;;;;;;;;;;;;;;16.19;56.70;99080.06;4433064;32;34021;-79
2022/04/23 18:27:17;;;;;;;;;;;;;;;15.97;57.34;99076.59;4433652;32;33198;-79
2022/04/23 18:29:47;;;;;;;;;;;;;;;15.94;57.49;99079.69;4446805;32;33850;-79
2022/04/23 18:32:15;;;;;;;;;;;;;;;15.76;58.10;99079.34;4430547;32;36867;-77
2022/04/23 18:34:43;;;;;;;;;;;;;;;15.48;59.16;99072.31;4417551;32;34514;-79
2022/04/23 18:37:11;;;;;;;;;;;;;;;15.53;59.02;99078.75;4438145;32;33306;-77
2022/04/23 18:39:40;;;;;;;;;;;;;;;15.71;58.53;99079.09;4418247;32;34919;-78
2022/04/23 18:42:08;;;;;;;;;;;;;;;15.65;58.68;99081.72;4448532;32;34749;-79
2022/04/23 18:44:35;;;;;;;;;;;;;;;15.58;59.10;99075.47;4434747;32;34446;-79
2022/04/23 18:47:04;;;;;;;;;;;;;;;15.59;58.83;99069.09;4456870;32;33137;-80
2022/04/23 18:49:32;;;;;;;;;;;;;;;15.60;58.76;99068.06;4432832;32;33611;-79
2022/04/23 18:52:02;;;;;;;;;;;;;;;15.32;59.73;99077.91;4433210;32;37085;-78
2022/04/23 18:54:30;;;;;;;;;;;;;;;15.25;59.74;99077.81;4445067;32;34480;-78
2022/04/23 18:56:57;;;;;;;;;;;;;;;15.40;59.16;99072.44;4438993;32;32847;-78
2022/04/23 18:59:25;;;;;;;;;;;;;;;15.46;58.94;99068.97;4446965;32;33960;-78
2022/04/23 19:01:53;;;;;;;;;;;;;;;15.34;59.44;99065.16;4444958;32;33601;-78
2022/04/23 19:04:21;;;;;;;;;;;;;;;15.16;60.06;99070.09;4435938;32;34215;-77
2022/04/23 19:06:51;;;;;;;;;;;;;;;14.76;61.09;99063.44;4432622;32;33214;-79
2022/04/23 19:09:20;;;;;;;;;;;;;;;14.83;61.18;99074.25;4456176;32;33526;-78
2022/04/23 19:11:48;;;;;;;;;;;;;;;14.61;61.89;99073.38;4450466;32;35171;-77
2022/04/23 19:14:16;;;;;;;;;;;;;;;14.89;61.03;99068.12;4458138;32;34652;-78
2022/04/23 19:16:44;;;;;;;;;;;;;;;14.84;61.28;99075.91;4456545;32;34095;-78
2022/04/23 19:19:12;;;;;;;;;;;;;;;14.57;62.04;99079.28;4435308;32;34388;-78
2022/04/23 19:30:00;;;;;;;;;;;;;;;14.45;62.68;99094.13;4420698;32;34381;-78
2022/04/23 19:32:29;;;;;;;;;;;;;;;14.45;62.87;99088.78;4432263;32;34985;-78
2022/04/23 19:34:56;;;;;;;;;;;;;;;14.73;62.17;99095.97;4446475;32;33835;-78
2022/04/23 19:37:25;;;;;;;;;;;;;;;14.84;61.91;99098.16;4450623;32;34319;-79
2022/04/23 19:39:52;;;;;;;;;;;;;;;14.60;62.81;99095.81;4419559;32;34169;-78
2022/04/23 19:42:20;;;;;;;;;;;;;;;14.92;61.75;99100.72;4429325;32;34885;-77
2022/04/23 19:44:48;;;;;;;;;;;;;;;15.00;61.64;99100.63;4446526;32;34237;-79
2022/04/23 19:47:16;;;;;;;;;;;;;;;14.83;62.15;99101.84;4429622;32;33354;-79
2022/04/23 19:49:43;;;;;;;;;;;;;;;14.82;62.25;99094.84;4418753;32;35871;-78
2022/04/23 19:52:11;;;;;;;;;;;;;;;15.01;61.62;99091.56;4428745;32;35184;-79
2022/04/23 19:54:39;;;;;;;;;;;;;;;14.94;61.93;99087.16;4444842;32;34698;-78
2022/04/23 19:57:07;;;;;;;;;;;;;;;14.82;62.40;99092.16;4432721;32;32411;-79
2022/04/23 19:59:35;;;;;;;;;;;;;;;14.70;62.92;99092.81;4438279;32;33785;-79
2022/04/23 20:02:03;;;;;;;;;;;;;;;14.73;62.83;99100.50;4427639;32;34615;-80
2022/04/23 20:04:31;;;;;;;;;;;;;;;14.78;62.74;99100.75;4420414;32;34759;-79
2022/04/23 20:06:58;;;;;;;;;;;;;;;14.96;62.25;99103.88;4445456;32;31183;-79
2022/04/23 20:09:26;;;;;;;;;;;;;;;14.74;62.90;99102.97;4447466;32;34184;-79
2022/04/23 20:11:57;;;;;;;;;;;;;;;14.98;62.34;99101.81;4434425;32;36917;-77
2022/04/23 20:14:24;;;;;;;;;;;;;;;15.10;62.02;99100.28;4421477;32;34119;-78
2022/04/23 20:16:52;;;;;;;;;;;;;;;15.28;61.14;99106.06;4442541;32;33928;-79
2022/04/23 20:19:20;;;;;;;;;;;;;;;15.41;60.61;99103.56;4432604;32;33484;-78
2022/04/23 20:21:48;;;;;;;;;;;;;;;15.32;60.93;99102.03;4446269;32;35204;-80
2022/04/23 20:24:15;;;;;;;;;;;;;;;15.40;60.69;99104.59;4433286;32;34902;-79
2022/04/23 20:26:44;;;;;;;;;;;;;;;15.31;60.77;99097.69;4432749;32;32207;-78
2022/04/23 20:29:17;;;;;;;;;;;;;;;15.49;60.32;99100.75;4429849;32;34907;-77
2022/04/23 20:31:46;;;;;;;;;;;;;;;15.30;60.83;99104.03;4432182;32;35170;-79
2022/04/23 20:34:14;;;;;;;;;;;;;;;15.34;60.77;99097.31;4423351;32;34688;-78
2022/04/23 20:39:43;;;;;;;;;;;;;;;15.04;61.68;99099.22;4440956;32;33723;-79
2022/04/23 20:42:11;;;;;;;;;;;;;;;15.42;60.48;99095.31;4445202;32;34519;-79
2022/04/23 20:44:39;;;;;;;;;;;;;;;15.14;61.33;99098.91;4441544;32;34885;-77
2022/04/23 20:47:08;;;;;;;;;;;;;;;14.95;62.14;99107.56;4460471;32;33204;-79
2022/04/23 20:49:36;;;;;;;;;;;;;;;14.86;62.45;99100.66;4460819;32;33366;-79
2022/04/23 20:54:50;;;;;;;;;;;;;;;14.70;62.85;99093.69;4430113;32;33120;-79
2022/04/23 20:57:18;;;;;;;;;;;;;;;14.81;62.59;99103.06;4429548;32;33040;-77
2022/04/23 20:59:46;;;;;;;;;;;;;;;14.97;62.10;99092.13;4445631;32;35934;-78
2022/04/23 21:02:13;;;;;;;;;;;;;;;14.96;62.12;99096.69;4444863;32;35279;-79
2022/04/23 21:04:41;;;;;;;;;;;;;;;14.94;62.06;99100.56;4439819;32;32718;-78
2022/04/23 21:07:10;;;;;;;;;;;;;;;14.73;nan;99095.16;4444666;32;33142;-79
2022/04/23 21:09:37;;;;;;;;;;;;;;;14.75;62.75;99096.59;4450402;32;34815;-80
2022/04/23 21:12:06;;;;;;;;;;;;;;;14.80;62.47;99098.72;4444992;32;35854;-79
2022/04/23 21:14:35;;;;;;;;;;;;;;;14.83;62.55;99101.84;4454339;32;34732;-80
2022/04/23 21:17:04;;;;;;;;;;;;;;;14.64;63.41;99097.09;4430743;32;33232;-80
2022/04/23 21:19:31;;;;;;;;;;;;;;;14.73;63.10;99103.19;4432390;32;34785;-79
2022/04/23 21:21:58;;;;;;;;;;;;;;;14.96;62.47;99104.72;4418945;32;34757;-77
2022/04/23 21:24:26;;;;;;;;;;;;;;;15.03;62.22;99105.59;4432022;32;34698;-79
2022/04/23 21:26:54;;;;;;;;;;;;;;;14.81;62.80;99090.50;4448642;32;33079;-79
2022/04/23 21:29:21;;;;;;;;;;;;;;;14.86;62.93;99097.97;4433623;32;33564;-79
2022/04/23 21:31:49;;;;;;;;;;;;;;;14.83;63.19;99093.81;4432696;32;35321;-77
2022/04/23 21:34:16;;;;;;;;;;;;;;;14.71;63.46;99095.34;4454760;32;34398;-77
2022/04/23 21:36:43;;;;;;;;;;;;;;;14.81;63.33;99098.53;4439827;32;32986;-78
2022/04/23 21:39:11;;;;;;;;;;;;;;;14.36;64.82;99095.28;4458132;32;33482;-77
2022/04/23 21:47:12;;;;;;;;;;;;;;;14.30;65.54;99087.13;4447549;32;33943;-79
2022/04/23 21:49:39;;;;;;;;;;;;;;;14.16;66.13;99082.59;4434041;32;34640;-78
2022/04/23 21:52:07;;;;;;;;;;;;;;;14.07;66.57;99086.37;4432223;32;35066;-77
2022/04/23 21:54:34;;;;;;;;;;;;;;;13.85;67.40;99082.75;4458638;32;34650;-77
2022/04/23 21:57:03;;;;;;;;;;;;;;;13.83;67.78;99079.44;4420265;32;33562;-79
2022/04/23 21:59:30;;;;;;;;;;;;;;;13.97;67.39;99080.47;4418551;32;34565;-78
2022/04/23 22:01:58;;;;;;;;;;;;;;;13.98;67.56;99087.47;4432341;32;35411;-80
2022/04/23 22:04:26;;;;;;;;;;;;;;;13.86;68.11;99081.72;4449008;32;34303;-77
2022/04/23 22:06:54;;;;;;;;;;;;;;;13.77;68.62;99077.47;4426554;32;33224;-79
2022/04/23 22:09:21;;;;;;;;;;;;;;;13.99;67.74;99076.59;4424465;32;34369;-79
2022/04/23 22:11:49;;;;;;;;;;;;;;;14.05;67.66;99075.84;4410100;32;33456;-79
2022/04/23 22:14:17;;;;;;;;;;;;;;;13.95;68.21;99067.25;4441849;32;34449;-78
2022/04/23 22:16:47;;;;;;;;;;;;;;;14.23;67.53;99068.31;4454371;32;33422;-77
2022/04/23 22:19:15;;;;;;;;;;;;;;;14.33;67.36;99060.03;4434092;32;34183;-79
2022/04/23 22:21:42;;;;;;;;;;;;;;;14.13;68.04;99070.41;4446590;32;35134;-80
2022/04/23 22:24:09;;;;;;;;;;;;;;;14.06;68.53;99066.00;4431771;32;34626;-79
2022/04/23 22:26:37;;;;;;;;;;;;;;;13.91;69.10;99073.16;4436040;32;32790;-79
2022/04/23 22:29:06;;;;;;;;;;;;;;;13.84;69.32;99064.19;4446114;32;34982;-80
2022/04/23 22:31:33;;;;;;;;;;;;;;;13.91;68.98;99068.66;4446608;32;35797;-78
2022/04/23 22:34:01;;;;;;;;;;;;;;;13.82;69.78;99059.06;4446163;32;34735;-80
2022/04/23 22:36:28;;;;;;;;;;;;;;;13.81;69.58;99069.91;4431576;32;33549;-79
2022/04/23 22:38:56;;;;;;;;;;;;;;;13.64;70.47;99068.41;4422092;32;33905;-78
2022/04/23 22:41:23;;;;;;;;;;;;;;;13.84;69.43;99066.88;4441457;32;34808;-79
2022/04/23 22:43:51;;;;;;;;;;;;;;;13.85;69.79;99056.00;4436492;32;33574;-79
2022/04/23 22:46:18;;;;;;;;;;;;;;;13.75;69.79;99054.59;4432336;32;33133;-77
2022/04/23 22:48:46;;;;;;;;;;;;;;;13.41;70.97;99047.06;4431218;32;35125;-78
2022/04/23 22:51:14;;;;;;;;;;;;;;;13.30;71.51;99036.81;4446109;32;34931;-80
2022/04/23 22:53:41;;;;;;;;;;;;;;;13.12;71.99;99040.81;4452140;32;35448;-77
2022/04/23 22:56:09;;;;;;;;;;;;;;;12.97;72.51;99035.41;4418216;32;31979;-79
2022/04/23 22:58:36;;;;;;;;;;;;;;;13.16;72.28;99028.75;4451477;32;34194;-78
2022/04/23 23:01:03;;;;;;;;;;;;;;;13.20;72.05;99030.88;4445467;32;34894;-79
2022/04/23 23:03:31;;;;;;;;;;;;;;;13.36;71.33;99025.41;4421062;32;34541;-78
2022/04/23 23:06:18;;;;;;;;;;;;;;;13.27;71.50;99026.50;4434953;32;33340;-79
2022/04/23 23:08:45;;;;;;;;;;;;;;;13.57;70.35;99028.22;4430449;32;33906;-79
2022/04/23 23:11:13;;;;;;;;;;;;;;;13.69;69.92;99031.28;4435184;32;35850;-78
2022/04/23 23:13:40;;;;;;;;;;;;;;;13.71;69.97;99034.59;4417090;32;35421;-80
2022/04/23 23:16:08;;;;;;;;;;;;;;;13.73;69.83;99030.75;4447067;32;33674;-79
2022/04/23 23:18:36;;;;;;;;;;;;;;;13.42;71.23;99029.19;4418107;32;34578;-79
2022/04/23 23:21:03;;;;;;;;;;;;;;;13.57;70.58;99030.88;4416673;32;37210;-78
2022/04/23 23:23:31;;;;;;;;;;;;;;;13.39;71.21;99034.91;4417776;32;34176;-78
2022/04/23 23:25:58;;;;;;;;;;;;;;;13.42;71.24;99029.19;4445775;32;33363;-79
2022/04/23 23:28:26;;;;;;;;;;;;;;;13.13;72.25;99023.78;4460502;32;33500;-80
2022/04/23 23:30:53;;;;;;;;;;;;;;;13.25;71.72;99017.84;4433975;32;36272;-78
2022/04/23 23:33:21;;;;;;;;;;;;;;;13.34;71.56;99029.25;4429726;32;34559;-79
2022/04/23 23:35:48;;;;;;;;;;;;;;;13.43;71.03;99033.53;4418402;32;31104;-78
2022/04/23 23:38:16;;;;;;;;;;;;;;;13.38;71.37;99027.88;4431085;32;35732;-79
2022/04/23 23:40:43;;;;;;;;;;;;;;;13.17;72.39;99028.56;4420638;32;35385;-79
2022/04/23 23:43:11;;;;;;;;;;;;;;;13.08;72.55;99028.81;4430872;32;34669;-79
2022/04/23 23:45:38;;;;;;;;;;;;;;;13.09;72.74;99033.13;4430194;32;34152;-78
2022/04/23 23:48:08;;;;;;;;;;;;;;;12.98;73.26;99042.41;4445109;32;35544;-80
2022/04/23 23:50:35;;;;;;;;;;;;;;;12.88;73.51;99033.78;4441121;32;36153;-78
2022/04/23 23:53:06;;;;;;;;;;;;;;;13.01;73.48;99027.84;4439893;32;34408;-78
2022/04/23 23:55:33;;;;;;;;;;;;;;;12.80;74.13;99023.13;4452731;32;34171;-78
2022/04/23 23:58:00;;;;;;;;;;;;;;;12.79;73.98;99023.31;4434415;32;34131;-78
